Time;durP1;ratioP1;P1;durP2;ratioP2;P2;SDS_P1;SDS_P2;PMS_P1;PMS_P2;Temp;Humidity;BMP_temperature;BMP_pressure;BME280_temperature;BME280_humidity;BME280_pressure;Samples;Min_cycle;Max_cycle;Signal;HPM_P1;HPM_P2
2020/12/18 00:00:55;;;;;;;15.80;11.15;;;;;;;11.55;65.05;101965.09;5044662;28;20349;-84
2020/12/18 00:03:21;;;;;;;11.90;10.52;;;;;;;11.37;65.42;101968.91;5061988;28;20074;-83
2020/12/18 00:05:47;;;;;;;14.65;11.75;;;;;;;11.54;64.86;101977.00;5027762;28;20071;-85
2020/12/18 00:08:12;;;;;;;18.75;14.77;;;;;;;11.45;64.92;101971.59;5056865;28;20135;-84
2020/12/18 00:10:38;;;;;;;16.98;10.00;;;;;;;11.40;65.06;101970.41;5065145;28;20032;-85
2020/12/18 00:13:04;;;;;;;17.58;11.25;;;;;;;11.38;65.15;101969.75;5052676;28;20124;-84
2020/12/18 00:15:30;;;;;;;14.68;10.40;;;;;;;11.45;64.87;101970.75;5064579;28;20486;-83
2020/12/18 00:17:55;;;;;;;18.63;14.00;;;;;;;11.35;65.06;101968.19;5066718;28;20393;-83
2020/12/18 00:20:21;;;;;;;17.00;15.23;;;;;;;11.29;65.20;101958.00;5035506;28;20793;-84
2020/12/18 00:22:47;;;;;;;16.13;12.10;;;;;;;11.29;65.09;101958.88;5066570;28;20115;-85
2020/12/18 00:25:13;;;;;;;11.50;10.32;;;;;;;11.27;65.17;101955.44;5066264;28;20098;-84
2020/12/18 00:27:40;;;;;;;18.55;13.80;;;;;;;11.24;65.75;101954.97;5069303;28;20025;-83
2020/12/18 00:30:09;;;;;;;12.80;11.20;;;;;;;11.38;65.02;101956.97;5031122;28;20029;-84
2020/12/18 00:32:39;;;;;;;17.27;9.63;;;;;;;11.20;66.10;101950.88;5050297;28;20056;-85
2020/12/18 00:35:06;;;;;;;11.13;9.98;;;;;;;11.33;65.50;101967.53;5066002;28;20028;-85
2020/12/18 00:37:31;;;;;;;16.90;13.35;;;;;;;11.33;65.58;101956.63;5051594;28;20044;-84
2020/12/18 00:40:00;;;;;;;12.15;10.95;;;;;;;11.33;65.42;101964.81;5069312;28;20411;-85
2020/12/18 00:42:34;;;;;;;12.88;10.82;;;;;;;11.25;65.46;101943.06;5066144;28;20119;-84
2020/12/18 00:48:50;;;;;;;;;;;;;;;;;;;;;
2020/12/18 00:51:17;;;;;;;18.77;11.43;;;;;;;11.31;65.30;101955.97;5067105;28;20028;-85
2020/12/18 00:53:43;;;;;;;16.73;9.50;;;;;;;11.15;65.69;101950.56;5050478;28;20078;-84
2020/12/18 00:56:09;;;;;;;15.30;12.48;;;;;;;11.13;65.62;101933.56;5057597;28;20086;-83
2020/12/18 00:58:35;;;;;;;15.50;12.60;;;;;;;11.18;65.87;101953.78;5047531;28;20045;-84
2020/12/18 01:01:01;;;;;;;16.35;12.55;;;;;;;11.19;66.01;101936.41;5055791;28;20035;-84
2020/12/18 01:03:26;;;;;;;17.25;11.32;;;;;;;11.20;66.17;101950.88;5067126;28;20031;-84
2020/12/18 01:05:51;;;;;;;15.00;11.38;;;;;;;11.22;65.54;101946.13;5046165;28;20033;-84
2020/12/18 01:08:17;;;;;;;21.23;11.75;;;;;;;11.24;65.77;101955.81;5071078;28;20035;-85
2020/12/18 01:10:42;;;;;;;16.92;12.07;;;;;;;11.28;65.49;101956.31;5050440;28;20052;-86
2020/12/18 01:13:08;;;;;;;13.23;9.48;;;;;;;11.22;65.68;101955.13;5066660;28;20097;-83
2020/12/18 01:15:33;;;;;;;15.90;13.63;;;;;;;11.17;65.71;101957.53;5033934;28;20036;-84
2020/12/18 01:17:58;;;;;;;13.05;8.88;;;;;;;11.15;65.77;101959.56;5048950;28;20036;-83
2020/12/18 01:20:24;;;;;;;16.15;9.00;;;;;;;11.16;66.00;101949.53;5064241;28;20033;-82
2020/12/18 01:22:50;;;;;;;13.50;9.50;;;;;;;11.15;65.94;101947.81;5065146;28;20537;-83
2020/12/18 01:25:15;;;;;;;13.45;9.82;;;;;;;11.14;65.97;101941.53;5063628;28;20074;-86
2020/12/18 01:27:41;;;;;;;17.42;10.40;;;;;;;10.89;66.84;101948.88;5067107;28;20021;-84
2020/12/18 01:30:06;;;;;;;20.65;11.02;;;;;;;11.10;66.14;101941.03;5069971;28;20402;-84
2020/12/18 01:32:32;;;;;;;16.08;12.05;;;;;;;11.11;65.81;101941.88;5068038;28;20679;-84
2020/12/18 01:34:57;;;;;;;13.90;10.30;;;;;;;11.13;65.75;101936.28;5063483;28;20040;-84
2020/12/18 01:37:22;;;;;;;14.63;13.13;;;;;;;11.07;65.54;101941.38;5051718;28;20040;-83
2020/12/18 01:39:48;;;;;;;18.75;16.80;;;;;;;10.86;66.49;101943.78;5065917;28;20414;-83
2020/12/18 01:42:13;;;;;;;17.23;12.27;;;;;;;10.82;66.64;101943.28;5053580;28;20031;-84
2020/12/18 01:44:39;;;;;;;19.92;13.95;;;;;;;10.81;66.77;101938.00;5066737;28;20043;-82
2020/12/18 01:47:18;;;;;;;17.88;13.52;;;;;;;10.88;66.37;101947.19;5065954;28;20448;-82
2020/12/18 01:49:44;;;;;;;23.15;16.67;;;;;;;10.94;65.84;101938.34;5079509;28;20497;-82
2020/12/18 01:52:10;;;;;;;17.75;13.43;;;;;;;10.84;66.43;101943.94;5049292;28;20035;-83
2020/12/18 01:54:35;;;;;;;16.90;13.88;;;;;;;10.93;65.53;101948.34;5072246;28;20024;-84
2020/12/18 01:57:01;;;;;;;24.63;17.25;;;;;;;10.95;65.39;101953.63;5067861;28;20490;-83
2020/12/18 01:59:26;;;;;;;21.90;16.23;;;;;;;10.91;65.25;101947.69;5053004;28;20036;-84
2020/12/18 02:01:52;;;;;;;18.98;13.45;;;;;;;10.91;65.26;101950.41;5070832;28;20494;-84
2020/12/18 02:04:17;;;;;;;16.55;12.95;;;;;;;10.87;65.07;101942.75;5073071;28;20028;-83
2020/12/18 02:06:48;;;;;;;19.15;16.23;;;;;;;10.54;66.83;101940.88;5068902;28;20505;-85
2020/12/18 02:09:14;;;;;;;14.38;12.68;;;;;;;10.68;66.42;101939.38;5052141;28;20470;-83
2020/12/18 02:11:39;;;;;;;22.33;14.63;;;;;;;10.57;66.63;101935.09;5054304;28;20040;-83
2020/12/18 02:14:11;;;;;;;20.17;14.38;;;;;;;10.64;66.72;101927.09;5070704;28;20037;-84
2020/12/18 02:16:37;;;;;;;18.95;14.13;;;;;;;10.46;67.21;101934.63;5070633;28;20064;-83
2020/12/18 02:19:03;;;;;;;21.20;17.83;;;;;;;10.43;67.45;101927.63;5049985;28;20074;-84
2020/12/18 02:21:29;;;;;;;20.00;11.13;;;;;;;10.55;67.28;101925.41;5066148;28;20838;-81
2020/12/18 02:23:54;;;;;;;16.83;11.35;;;;;;;10.41;67.71;101926.97;5067609;28;20033;-82
2020/12/18 02:26:20;;;;;;;20.15;13.68;;;;;;;10.62;67.07;101931.88;5051252;28;20045;-84
2020/12/18 02:28:46;;;;;;;21.67;14.45;;;;;;;10.52;67.05;101931.22;5068406;28;20047;-84
2020/12/18 02:31:11;;;;;;;22.23;15.50;;;;;;;10.59;66.77;101934.94;5054766;28;20034;-83
2020/12/18 02:33:40;;;;;;;19.38;13.88;;;;;;;10.69;66.40;101932.03;5067963;28;20036;-82
2020/12/18 02:36:05;;;;;;;23.65;16.08;;;;;;;10.63;66.17;101928.16;5077925;28;20028;-81
2020/12/18 02:38:31;;;;;;;20.92;13.45;;;;;;;10.66;66.09;101937.81;5054751;28;20047;-84
2020/12/18 02:40:57;;;;;;;21.55;15.32;;;;;;;10.66;65.77;101935.97;5052075;28;20398;-81
2020/12/18 02:43:23;;;;;;;19.58;14.77;;;;;;;10.64;65.87;101932.56;5078112;28;20032;-81
2020/12/18 02:45:49;;;;;;;19.33;17.27;;;;;;;10.65;65.62;101934.25;5069656;28;20039;-83
2020/12/18 02:48:15;;;;;;;18.23;13.43;;;;;;;10.54;65.84;101934.59;5075846;28;20052;-82
2020/12/18 02:50:40;;;;;;;18.25;14.02;;;;;;;10.57;65.68;101913.34;5057616;28;20105;-81
2020/12/18 02:53:13;;;;;;;19.50;13.35;;;;;;;10.48;66.00;101908.09;5073640;28;20033;-80
2020/12/18 02:55:40;;;;;;;16.08;13.80;;;;;;;10.35;66.62;101911.31;5054812;28;20086;-82
2020/12/18 02:58:05;;;;;;;29.15;18.25;;;;;;;10.33;67.21;101911.47;5075151;28;20032;-82
2020/12/18 03:00:30;;;;;;;23.40;18.45;;;;;;;10.26;67.77;101910.41;5069869;28;20033;-83
2020/12/18 03:02:56;;;;;;;20.08;17.73;;;;;;;10.16;67.90;101904.28;5059190;28;21543;-82
2020/12/18 03:05:21;;;;;;;27.15;15.95;;;;;;;10.43;67.32;101903.16;5054477;28;20041;-83
2020/12/18 03:07:47;;;;;;;20.60;15.45;;;;;;;10.27;68.01;101895.81;5074464;28;20032;-82
2020/12/18 03:10:12;;;;;;;22.92;17.08;;;;;;;10.25;68.34;101897.00;5075162;28;20040;-82
2020/12/18 03:12:38;;;;;;;23.50;16.38;;;;;;;10.24;68.15;101892.56;5072206;28;20684;-82
2020/12/18 03:15:03;;;;;;;22.25;15.05;;;;;;;10.27;68.15;101894.94;5075826;28;20032;-80
2020/12/18 03:17:28;;;;;;;25.20;16.08;;;;;;;10.44;67.58;101893.13;5070609;28;20024;-79
2020/12/18 03:19:54;;;;;;;21.90;15.00;;;;;;;10.61;66.90;101893.97;5075551;28;20481;-81
2020/12/18 03:22:19;;;;;;;24.98;17.67;;;;;;;10.33;67.66;101886.16;5052904;28;20036;-82
2020/12/18 03:24:44;;;;;;;25.17;17.17;;;;;;;10.23;68.46;101885.44;5077117;28;20036;-81
2020/12/18 03:27:10;;;;;;;21.52;17.40;;;;;;;10.27;68.54;101898.53;5071290;28;20056;-82
2020/12/18 03:29:35;;;;;;;29.00;19.73;;;;;;;10.26;68.37;101888.66;5072910;28;20025;-80
2020/12/18 03:32:01;;;;;;;26.45;17.40;;;;;;;10.40;68.20;101889.91;5072028;28;20032;-82
2020/12/18 03:34:26;;;;;;;26.05;18.60;;;;;;;10.33;68.28;101884.28;5057209;28;20035;-81
2020/12/18 03:36:52;;;;;;;26.52;17.20;;;;;;;10.43;68.18;101886.84;5052754;28;20528;-82
2020/12/18 03:39:17;;;;;;;28.63;17.05;;;;;;;10.37;68.58;101879.34;5055931;28;20048;-83
2020/12/18 03:41:43;;;;;;;25.33;16.50;;;;;;;10.59;67.70;101879.69;5073933;28;20398;-82
2020/12/18 03:44:08;;;;;;;22.08;16.98;;;;;;;10.61;67.79;101883.09;5073124;28;20398;-81
2020/12/18 03:46:33;;;;;;;26.50;19.42;;;;;;;10.57;67.96;101883.44;5072474;28;20032;-81
2020/12/18 03:48:59;;;;;;;30.40;17.20;;;;;;;10.65;67.67;101888.00;5074193;28;20086;-82
2020/12/18 03:51:24;;;;;;;30.23;18.15;;;;;;;10.78;67.18;101882.03;5056526;28;20036;-82
2020/12/18 03:53:49;;;;;;;24.58;17.52;;;;;;;10.77;67.11;101883.09;5070987;28;20482;-83
2020/12/18 03:56:15;;;;;;;25.83;16.98;;;;;;;10.74;67.26;101877.97;5074109;28;20033;-82
2020/12/18 03:58:40;;;;;;;29.17;15.50;;;;;;;10.63;68.10;101879.19;5051361;28;20032;-82
2020/12/18 04:01:06;;;;;;;31.45;18.00;;;;;;;10.78;67.41;101873.03;5055489;28;20381;-82
2020/12/18 04:03:31;;;;;;;26.30;16.85;;;;;;;10.69;67.57;101881.22;5051346;28;20041;-83
2020/12/18 04:05:57;;;;;;;29.92;16.15;;;;;;;10.75;67.41;101869.66;5077023;28;20028;-83
2020/12/18 04:08:22;;;;;;;28.58;17.42;;;;;;;10.85;67.03;101869.44;5053907;28;20786;-82
2020/12/18 04:10:47;;;;;;;20.52;14.65;;;;;;;10.98;66.80;101868.06;5075041;28;20032;-83
2020/12/18 04:13:13;;;;;;;25.02;15.93;;;;;;;10.82;67.11;101872.53;5036491;28;20069;-83
2020/12/18 04:15:42;;;;;;;25.88;16.63;;;;;;;10.91;67.14;101859.75;5050285;28;20047;-85
2020/12/18 04:18:09;;;;;;;29.48;16.70;;;;;;;10.87;67.44;101855.66;5052371;28;20483;-81
2020/12/18 04:20:35;;;;;;;31.27;17.10;;;;;;;10.92;67.65;101858.72;5070445;28;20037;-85
2020/12/18 04:23:01;;;;;;;29.17;19.52;;;;;;;10.93;67.44;101844.94;5055646;28;20498;-80
2020/12/18 04:25:26;;;;;;;28.67;19.25;;;;;;;10.84;67.82;101848.69;5067522;28;20025;-82
2020/12/18 04:27:51;;;;;;;30.85;20.13;;;;;;;10.94;67.63;101840.34;5071313;28;20478;-82
2020/12/18 04:30:17;;;;;;;30.58;18.77;;;;;;;10.98;67.57;101847.13;5049020;28;20028;-81
2020/12/18 04:32:42;;;;;;;28.58;19.10;;;;;;;10.88;67.91;101846.50;5072393;28;20052;-82
2020/12/18 04:35:08;;;;;;;26.25;18.58;;;;;;;11.02;67.36;101853.09;5068950;28;20724;-82
2020/12/18 04:37:33;;;;;;;28.17;19.52;;;;;;;10.95;67.34;101831.16;5073224;28;20043;-83
2020/12/18 04:39:59;;;;;;;30.63;19.80;;;;;;;10.99;67.51;101842.56;5072822;28;20048;-81
2020/12/18 04:42:25;;;;;;;22.25;16.27;;;;;;;11.17;66.78;101847.75;5049959;28;20048;-82
2020/12/18 04:44:50;;;;;;;25.38;17.15;;;;;;;11.09;67.11;101845.91;5074053;28;20029;-82
2020/12/18 04:47:16;;;;;;;32.55;17.30;;;;;;;11.14;67.00;101840.81;5074000;28;20386;-81
2020/12/18 04:49:42;;;;;;;25.58;16.38;;;;;;;11.03;67.24;101839.31;5075534;28;20036;-83
2020/12/18 04:52:12;;;;;;;30.35;16.70;;;;;;;11.11;67.25;101833.84;5069800;28;20032;-83
2020/12/18 04:54:41;;;;;;;27.90;18.10;;;;;;;11.03;67.30;101828.44;5049185;28;20063;-82
2020/12/18 04:57:07;;;;;;;26.27;17.80;;;;;;;10.85;67.98;101830.50;5048188;28;20026;-81
2020/12/18 04:59:34;;;;;;;24.77;15.90;;;;;;;11.04;66.91;101824.66;5056447;28;20028;-83
2020/12/18 05:02:00;;;;;;;25.45;15.77;;;;;;;10.86;67.92;101816.75;5069989;28;20077;-84
2020/12/18 05:04:27;;;;;;;25.73;17.35;;;;;;;11.02;67.22;101815.81;5067818;28;20490;-84
2020/12/18 05:06:53;;;;;;;27.63;18.27;;;;;;;10.88;67.38;101819.28;5070167;28;20036;-81
2020/12/18 05:09:18;;;;;;;33.10;20.38;;;;;;;11.00;67.40;101809.72;5053143;28;20039;-81
2020/12/18 05:11:45;;;;;;;25.58;16.33;;;;;;;10.78;68.03;101813.19;5071679;28;20040;-81
2020/12/18 05:14:10;;;;;;;25.30;17.67;;;;;;;10.82;67.51;101795.50;5067221;28;20032;-82
2020/12/18 05:16:35;;;;;;;27.60;18.23;;;;;;;10.96;67.83;101805.63;5065909;28;20024;-81
2020/12/18 05:19:04;;;;;;;26.83;17.42;;;;;;;11.08;67.17;101809.69;5050702;28;20094;-82
2020/12/18 05:21:31;;;;;;;28.23;17.00;;;;;;;10.93;67.67;101811.44;5065207;28;20385;-82
2020/12/18 05:23:56;;;;;;;30.67;19.30;;;;;;;10.96;67.51;101808.38;5067514;28;20501;-83
2020/12/18 05:26:27;;;;;;;32.72;19.48;;;;;;;10.97;67.52;101811.91;5067260;28;20032;-83
2020/12/18 05:29:07;;;;;;;25.10;16.70;;;;;;;10.96;67.58;101800.19;5066692;28;20063;-85
2020/12/18 05:31:33;;;;;;;31.20;19.02;;;;;;;10.72;68.02;101809.25;5066658;28;20020;-83
2020/12/18 05:34:03;;;;;;;25.27;15.77;;;;;;;10.78;68.20;101803.13;5066100;28;20085;-82
2020/12/18 05:36:29;;;;;;;28.65;16.55;;;;;;;10.94;67.68;101791.38;5068527;28;20036;-83
2020/12/18 05:38:56;;;;;;;26.17;17.20;;;;;;;10.84;68.05;101788.81;5067652;28;20027;-83
2020/12/18 05:41:24;;;;;;;24.98;18.15;;;;;;;10.85;67.81;101786.97;5049819;28;20048;-83
2020/12/18 05:43:50;;;;;;;29.38;18.13;;;;;;;10.83;68.25;101789.88;5067928;28;20414;-83
2020/12/18 05:46:22;;;;;;;34.00;17.52;;;;;;;10.93;68.01;101786.94;5050774;28;20549;-85
2020/12/18 05:48:57;;;;;;;26.08;17.08;;;;;;;10.92;67.79;101797.00;5066983;28;20029;-83
2020/12/18 05:51:31;;;;;;;30.85;17.50;;;;;;;10.85;67.97;101795.13;5048645;28;20037;-79
2020/12/18 05:54:12;;;;;;;31.77;17.10;;;;;;;10.97;67.61;101791.03;5067703;28;20055;-83
2020/12/18 05:56:39;;;;;;;30.42;18.65;;;;;;;10.88;67.81;101797.50;5070301;28;20301;-81
2020/12/18 05:59:13;;;;;;;33.08;21.08;;;;;;;10.87;67.70;101795.81;5066212;28;20029;-84
2020/12/18 06:01:46;;;;;;;34.85;22.63;;;;;;;10.87;67.80;101790.34;5065626;28;20115;-84
2020/12/18 06:04:23;;;;;;;36.30;19.75;;;;;;;10.80;67.95;101790.22;5067076;28;20036;-84
2020/12/18 06:06:52;;;;;;;28.30;19.67;;;;;;;10.84;67.71;101797.00;5048581;28;20115;-83
2020/12/18 06:09:23;;;;;;;29.13;18.02;;;;;;;11.05;66.92;101788.25;5070895;28;20142;-83
2020/12/18 06:11:49;;;;;;;37.78;18.92;;;;;;;10.92;67.75;101799.72;5051095;28;20028;-83
2020/12/18 06:14:18;;;;;;;30.33;17.27;;;;;;;10.98;67.10;101798.13;5074446;28;20436;-84
2020/12/18 06:16:53;;;;;;;33.72;18.08;;;;;;;11.01;66.83;101791.50;5051369;28;20544;-81
2020/12/18 06:19:21;;;;;;;30.75;17.30;;;;;;;10.79;67.97;101782.22;5074128;28;20530;-80
2020/12/18 06:21:55;;;;;;;30.52;18.85;;;;;;;10.83;67.62;101778.13;5052194;28;20025;-84
2020/12/18 06:24:20;;;;;;;30.02;18.25;;;;;;;10.81;67.52;101778.28;5071697;28;20040;-82
2020/12/18 06:26:51;;;;;;;34.42;19.25;;;;;;;10.75;67.75;101782.59;5054727;28;20077;-83
2020/12/18 06:29:17;;;;;;;25.35;16.90;;;;;;;10.93;67.39;101778.78;5038201;28;20101;-81
2020/12/18 06:31:43;;;;;;;29.75;17.40;;;;;;;10.79;67.62;101783.06;5068316;28;20090;-83
2020/12/18 06:34:10;;;;;;;27.83;17.50;;;;;;;10.78;67.96;101783.25;5054048;28;20418;-82
2020/12/18 06:36:48;;;;;;;34.17;19.75;;;;;;;10.80;67.87;101789.34;5069910;28;20032;-80
2020/12/18 06:39:23;;;;;;;29.85;18.70;;;;;;;10.87;67.39;101790.34;5067711;28;20420;-82
2020/12/18 06:42:08;;;;;;;23.73;17.10;;;;;;;10.81;67.57;101791.06;5067808;28;20123;-84
2020/12/18 06:44:35;;;;;;;25.23;17.85;;;;;;;11.08;66.42;101798.78;5045536;28;20163;-83
2020/12/18 06:47:08;;;;;;;25.30;15.35;;;;;;;10.89;67.02;101793.75;5071142;28;20071;-82
2020/12/18 06:50:14;;;;;;;29.33;15.98;;;;;;;10.69;67.98;101794.16;5068702;28;20171;-83
2020/12/18 06:52:47;;;;;;;25.98;16.52;;;;;;;10.83;67.95;101791.72;5067868;28;20043;-82
2020/12/18 06:55:25;;;;;;;28.73;18.77;;;;;;;10.97;67.15;101785.56;5071457;28;20056;-83
2020/12/18 06:58:06;;;;;;;27.75;16.85;;;;;;;10.88;67.88;101789.34;5067894;28;20051;-82
2020/12/18 07:00:47;;;;;;;36.55;19.02;;;;;;;10.88;67.78;101784.75;5068729;28;20036;-82
2020/12/18 07:03:31;;;;;;;34.65;18.90;;;;;;;10.75;68.75;101787.16;5067635;28;20029;-83
2020/12/18 07:06:04;;;;;;;25.48;17.98;;;;;;;10.89;68.30;101793.75;5070811;28;20029;-82
2020/12/18 07:08:32;;;;;;;28.70;18.27;;;;;;;11.23;67.51;101806.22;5055343;28;20067;-82
2020/12/18 07:11:05;;;;;;;31.75;20.23;;;;;;;11.24;67.36;101813.38;5070808;28;20556;-82
2020/12/18 07:13:32;;;;;;;32.80;19.48;;;;;;;11.32;67.21;101815.19;5050133;28;20043;-84
2020/12/18 07:16:00;;;;;;;28.58;20.23;;;;;;;11.32;67.28;101831.53;5066285;28;20411;-83
2020/12/18 07:18:28;;;;;;;33.50;22.83;;;;;;;11.30;67.59;101823.56;5053435;28;20039;-82
2020/12/18 07:20:59;;;;;;;33.83;21.52;;;;;;;11.27;67.67;101823.91;5049421;28;20124;-82
2020/12/18 07:23:26;;;;;;;;;;;;;;;11.36;67.28;101831.00;5051244;28;20024;-82
2020/12/18 07:25:53;;;;;;;35.17;23.90;;;;;;;11.45;67.58;101835.41;5065310;28;19920;-83
2020/12/18 07:28:19;;;;;;;30.23;23.75;;;;;;;11.57;67.30;101840.44;5069551;28;20464;-84
2020/12/18 07:30:47;;;;;;;45.03;30.50;;;;;;;11.64;66.92;101841.44;5069728;28;20037;-83
2020/12/18 07:33:15;;;;;;;41.10;27.92;;;;;;;11.75;66.54;101854.63;5054195;28;20032;-84
2020/12/18 07:35:45;;;;;;;38.78;27.02;;;;;;;11.61;66.86;101855.41;5066970;28;20043;-81
2020/12/18 07:38:22;;;;;;;41.45;28.38;;;;;;;11.82;66.58;101862.97;5052315;28;20033;-83
2020/12/18 07:40:52;;;;;;;34.28;27.73;;;;;;;11.61;67.22;101863.59;5051044;28;20391;-85
2020/12/18 07:43:20;;;;;;;46.08;26.75;;;;;;;11.69;66.75;101852.63;5074085;28;20047;-84
2020/12/18 07:45:51;;;;;;;37.85;27.23;;;;;;;11.73;66.63;101853.97;5069266;28;20835;-84
2020/12/18 07:48:20;;;;;;;43.30;30.30;;;;;;;11.85;66.32;101857.16;5049431;28;20577;-86
2020/12/18 07:51:09;;;;;;;39.63;27.67;;;;;;;11.92;66.09;101862.72;5051730;28;20035;-87
2020/12/18 07:53:42;;;;;;;43.92;27.67;;;;;;;11.95;65.91;101865.13;5057760;28;20064;-87
2020/12/18 07:56:18;;;;;;;42.10;28.95;;;;;;;11.94;66.01;101852.50;5068549;28;20029;-84
2020/12/18 07:58:49;;;;;;;39.50;25.02;;;;;;;12.07;65.65;101857.38;5066993;28;20379;-85
2020/12/18 08:01:21;;;;;;;45.35;30.77;;;;;;;12.14;65.36;101853.75;5067174;28;20074;-84
2020/12/18 08:03:51;;;;;;;39.10;27.42;;;;;;;11.99;65.75;101844.66;5054116;28;20031;-84
2020/12/18 08:06:19;;;;;;;44.28;31.45;;;;;;;12.02;65.98;101854.34;5045622;28;20032;-85
2020/12/18 08:08:58;;;;;;;46.95;31.05;;;;;;;11.79;66.74;101834.19;5068559;28;20025;-83
2020/12/18 08:11:26;;;;;;;42.15;32.38;;;;;;;11.99;65.55;101840.03;5066555;28;20039;-85
2020/12/18 08:13:52;;;;;;;45.88;33.30;;;;;;;12.09;65.56;101845.25;5064932;28;20390;-86
2020/12/18 08:16:20;;;;;;;47.42;33.65;;;;;;;11.91;66.20;101841.94;5070098;28;20040;-83
2020/12/18 08:19:09;;;;;;;44.60;31.17;;;;;;;12.00;66.00;101840.88;5067966;28;20027;-84
2020/12/18 08:21:40;;;;;;;50.42;31.25;;;;;;;11.99;65.77;101852.84;5058891;28;20056;-83
2020/12/18 08:24:18;;;;;;;46.58;32.45;;;;;;;12.15;65.60;101849.13;5067144;28;20414;-84
2020/12/18 08:26:54;;;;;;;42.90;29.40;;;;;;;11.94;65.84;101847.94;5072642;28;20080;-85
2020/12/18 08:29:22;;;;;;;43.35;31.77;;;;;;;12.13;65.41;101856.66;5069536;28;20032;-83
2020/12/18 08:31:48;;;;;;;49.75;33.50;;;;;;;12.02;65.65;101849.75;5050597;28;20036;-84
2020/12/18 08:34:44;;;;;;;42.40;29.80;;;;;;;12.26;65.03;101851.44;5049031;28;20494;-83
2020/12/18 08:37:09;;;;;;;45.72;31.92;;;;;;;12.28;64.94;101853.97;5068451;28;20036;-85
2020/12/18 08:39:38;;;;;;;41.53;29.40;;;;;;;12.40;64.73;101854.41;5067391;28;20091;-84
2020/12/18 08:42:04;;;;;;;49.20;31.70;;;;;;;12.25;64.99;101854.34;5036249;28;20765;-87
2020/12/18 08:44:43;;;;;;;42.78;30.63;;;;;;;12.32;64.83;101853.44;5067229;28;20039;-84
2020/12/18 08:47:30;;;;;;;47.28;30.95;;;;;;;12.47;64.44;101852.66;5065659;28;20062;-84
2020/12/18 08:50:00;;;;;;;42.78;30.33;;;;;;;12.41;64.68;101851.50;5065707;28;20283;-86
2020/12/18 08:52:27;;;;;;;42.53;29.88;;;;;;;12.34;64.42;101850.50;5050186;28;20233;-84
2020/12/18 08:55:00;;;;;;;43.45;28.75;;;;;;;12.35;64.85;101844.88;5071215;28;20063;-85
2020/12/18 08:57:28;;;;;;;47.33;31.23;;;;;;;12.39;64.58;101844.50;5055978;28;20039;-86
2020/12/18 09:00:10;;;;;;;39.83;29.23;;;;;;;12.33;64.74;101835.19;5066904;28;20141;-87
2020/12/18 09:02:58;;;;;;;38.28;27.50;;;;;;;12.54;64.17;101831.75;5067990;28;20055;-87
2020/12/18 09:05:25;;;;;;;45.50;29.55;;;;;;;12.49;64.31;101840.50;5068284;28;20583;-87
2020/12/18 09:08:19;;;;;;;43.85;30.92;;;;;;;12.49;64.14;101829.56;5069555;28;20060;-84
2020/12/18 09:10:45;;;;;;;37.45;26.17;;;;;;;12.60;63.94;101832.91;5061465;28;20025;-86
2020/12/18 09:13:22;;;;;;;40.88;27.67;;;;;;;12.54;64.05;101834.47;5066023;28;20501;-86
2020/12/18 09:16:02;;;;;;;37.13;27.15;;;;;;;12.52;64.32;101834.66;5063160;28;20482;-85
2020/12/18 09:18:29;;;;;;;40.63;26.98;;;;;;;12.68;63.93;101843.72;5068547;28;20141;-86
2020/12/18 09:20:55;;;;;;;37.88;26.58;;;;;;;12.74;63.93;101851.19;5066212;28;20068;-86
2020/12/18 09:23:29;;;;;;;35.00;25.50;;;;;;;12.77;63.64;101847.25;5070891;28;20032;-85
2020/12/18 09:25:56;;;;;;;43.13;27.33;;;;;;;12.79;63.64;101835.09;5070987;28;20057;-84
2020/12/18 09:28:22;;;;;;;31.60;23.58;;;;;;;12.93;63.18;101846.22;5038364;28;20035;-82
2020/12/18 09:30:51;;;;;;;34.55;22.67;;;;;;;12.92;63.32;101842.63;5066505;28;20371;-83
2020/12/18 09:33:30;;;;;;;33.20;22.08;;;;;;;13.17;62.99;101845.94;5069822;28;20039;-85
2020/12/18 09:36:08;;;;;;;32.20;21.23;;;;;;;12.87;63.53;101842.38;5070642;28;20051;-86
2020/12/18 09:38:34;;;;;;;31.98;20.63;;;;;;;13.51;62.54;101833.59;5066910;28;20029;-83
2020/12/18 09:41:01;;;;;;;29.90;19.15;;;;;;;13.79;61.69;101830.13;5048097;28;20044;-85
2020/12/18 09:43:28;;;;;;;32.90;20.35;;;;;;;14.09;60.33;101832.75;5064505;28;20074;-84
2020/12/18 09:45:54;;;;;;;29.88;19.92;;;;;;;14.17;59.95;101843.56;5067577;28;20021;-85
2020/12/18 09:48:20;;;;;;;26.02;18.05;;;;;;;14.29;60.01;101838.44;5066162;28;20562;-84
2020/12/18 09:50:47;;;;;;;24.23;16.55;;;;;;;13.99;60.50;101841.28;5068822;28;20028;-85
2020/12/18 09:53:13;;;;;;;25.70;15.27;;;;;;;14.21;60.18;101839.41;5066573;28;20446;-85
2020/12/18 09:55:38;;;;;;;27.17;16.17;;;;;;;14.14;60.14;101838.50;5068135;28;20524;-82
2020/12/18 09:58:04;;;;;;;26.33;16.15;;;;;;;14.13;60.08;101832.19;5028287;28;20111;-83
2020/12/18 10:00:30;;;;;;;25.05;15.23;;;;;;;14.13;59.68;101837.66;5057711;28;20837;-85
2020/12/18 10:02:57;;;;;;;22.08;15.52;;;;;;;14.55;58.74;101840.53;5040922;28;20033;-83
2020/12/18 10:05:23;;;;;;;19.13;12.77;;;;;;;14.80;58.43;101843.72;5067380;28;20581;-85
2020/12/18 10:07:49;;;;;;;21.02;12.18;;;;;;;15.61;56.10;101833.16;5070208;28;20039;-85
2020/12/18 10:10:14;;;;;;;18.15;11.65;;;;;;;15.87;55.18;101832.44;5065584;28;20036;-85
2020/12/18 10:12:40;;;;;;;20.67;12.43;;;;;;;15.96;54.62;101835.81;5065550;28;20559;-87
2020/12/18 10:15:05;;;;;;;18.38;10.77;;;;;;;16.06;53.70;101842.59;5024299;28;20032;-85
2020/12/18 10:17:31;;;;;;;14.40;8.77;;;;;;;16.60;52.61;101845.38;5048845;28;20501;-87
2020/12/18 10:19:56;;;;;;;13.55;9.15;;;;;;;16.85;52.30;101833.75;5048865;28;20036;-84
2020/12/18 10:22:22;;;;;;;15.75;9.65;;;;;;;16.59;52.70;101830.81;5043297;28;20028;-85
2020/12/18 10:24:47;;;;;;;13.93;9.02;;;;;;;16.96;51.83;101822.09;5029728;28;20123;-87
2020/12/18 10:27:13;;;;;;;12.73;9.45;;;;;;;16.74;52.21;101819.59;5046646;28;20048;-85
2020/12/18 10:29:39;;;;;;;11.98;8.77;;;;;;;16.76;52.61;101822.13;5070602;28;20037;-83
2020/12/18 10:32:04;;;;;;;16.17;9.55;;;;;;;16.29;53.81;101806.50;5066350;28;20044;-84
2020/12/18 10:34:30;;;;;;;9.85;7.72;;;;;;;16.56;53.08;101800.16;5061158;28;20029;-88
2020/12/18 10:36:56;;;;;;;14.05;9.10;;;;;;;16.03;54.27;101796.34;5047224;28;20040;-86
2020/12/18 10:39:23;;;;;;;16.88;9.20;;;;;;;16.34;54.32;101789.41;5061942;28;20060;-86
2020/12/18 10:41:50;;;;;;;11.95;7.97;;;;;;;15.67;55.43;101788.47;5059912;28;20031;-86
2020/12/18 10:44:15;;;;;;;17.70;8.63;;;;;;;15.85;55.06;101796.97;5043226;28;20036;-85
2020/12/18 10:46:41;;;;;;;13.90;8.30;;;;;;;16.07;54.59;101778.44;5067969;28;20039;-87
2020/12/18 10:49:07;;;;;;;20.00;7.93;;;;;;;15.94;55.00;101770.19;5057076;28;20567;-84
2020/12/18 10:51:42;;;;;;;13.55;8.60;;;;;;;15.66;55.66;101775.81;5053118;28;20025;-87
2020/12/18 10:54:08;;;;;;;15.77;7.95;;;;;;;15.50;56.08;101766.06;5067704;28;20086;-87
2020/12/18 10:56:42;;;;;;;13.88;8.65;;;;;;;15.64;55.87;101762.28;5048163;28;20405;-86
2020/12/18 10:59:09;;;;;;;13.02;8.35;;;;;;;15.89;54.93;101762.56;5067910;28;20074;-84
2020/12/18 11:01:34;;;;;;;16.10;7.07;;;;;;;16.00;54.32;101769.34;5067864;28;20093;-87
2020/12/18 11:04:00;;;;;;;14.02;7.75;;;;;;;15.74;55.46;101768.22;5047553;28;21627;-86
2020/12/18 11:06:25;;;;;;;11.35;6.75;;;;;;;15.79;55.23;101773.13;5047690;28;20074;-85
2020/12/18 11:08:50;;;;;;;17.55;6.75;;;;;;;16.05;55.14;101772.31;5070151;28;20509;-84
2020/12/18 11:11:16;;;;;;;12.15;6.65;;;;;;;16.01;55.00;101761.97;5077218;28;20058;-86
2020/12/18 11:13:42;;;;;;;12.82;6.40;;;;;;;15.89;55.19;101754.34;5073280;28;20032;-83
2020/12/18 11:16:08;;;;;;;13.05;7.00;;;;;;;15.97;55.30;101747.81;5073423;28;20462;-88
2020/12/18 11:18:34;;;;;;;13.48;6.32;;;;;;;15.51;56.10;101730.22;5070241;28;20042;-85
2020/12/18 11:21:07;;;;;;;9.02;6.25;;;;;;;15.90;55.81;101750.56;5068198;28;20589;-85